• Join FlightAware (Why Join?)
  • Login
  • US Flag 
04:06AM EDT


 

Airport Tracker/Info


-or-


 

Live Flight TrackerFlight Track Log ✈ N910WW ✈ 03-Oct-2013 ✈ KGNV - KSOP

Flight Track Log - Related Links

Times and Time Zones

All times are in EDT time to prevent confusion due to time zone crossing. See the N910WW flight status page for this flight to view local times or setup timezone preferences in your user account.

Time Position Orientation Groundspeed Altitude Reporting Facility
EDT Latitude Longitude Course Direction KTS MPH feet Rate Location/Type
10:05AM 29.6972 -82.2661 54° Northeast 111 128 700  Level Jacksonville Center
10:07AM 29.7200 -82.2300 54° Northeast 119 137 2,200 1,020 Climbing Jacksonville Center
10:08AM 29.7617 -82.2322 357° North 157 181 3,200 900 Climbing Jacksonville Center
10:09AM 29.8097 -82.2342 358° North 151 174 4,200 840 Climbing Jacksonville Center
10:10AM 29.8389 -82.2342 360° North 152 175 4,800 780 Climbing Jacksonville Center
10:11AM 29.8889 -82.2194 14° North 142 163 5,800 720 Climbing Jacksonville Center
10:12AM 29.9286 -82.2000 23° Northeast 144 166 6,600 780 Climbing Jacksonville Center
10:13AM 29.9597 -82.1781 31° Northeast 143 165 7,400 780 Climbing Jacksonville Center
10:14AM 29.9950 -82.1514 33° Northeast 148 170 8,200 720 Climbing Jacksonville Center
10:15AM 30.0242 -82.1272 36° Northeast 147 169 8,800 660 Climbing Jacksonville Center
10:16AM 30.0617 -82.0981 34° Northeast 146 168 9,500 600 Climbing Jacksonville Center
10:17AM 30.0928 -82.0714 37° Northeast 144 166 10,100 600 Climbing Jacksonville Center
10:18AM 30.1342 -82.0519 22° Northeast 151 174 10,800 600 Climbing Jacksonville Center
10:19AM 30.1717 -82.0347 22° Northeast 145 167 11,400 540 Climbing Jacksonville Center
10:20AM 30.2092 -82.0153 24° Northeast 149 171 12,000 420 Climbing Jacksonville Center
10:21AM 30.2425 -82.0031 18° North 148 170 12,300 360 Climbing Jacksonville Center
10:21AM 30.2486 -81.9956 47° Northeast 152 175 12,400 480 Climbing Jacksonville Center
10:22AM 30.2903 -81.9761 22° Northeast 155 178 12,900 420 Climbing Jacksonville Center
10:23AM 30.3194 -81.9636 20° North 160 184 13,300 420 Climbing Jacksonville Center
10:24AM 30.3589 -81.9442 23° Northeast 160 184 13,700 420 Climbing Jacksonville Center
10:25AM 30.3986 -81.9244 23° Northeast 160 184 14,200 420 Climbing Jacksonville Center
10:26AM 30.4381 -81.9022 26° Northeast 154 177 14,600 420 Climbing Jacksonville Center
10:27AM 30.4797 -81.8825 22° Northeast 154 177 15,100 420 Climbing Jacksonville Center
10:28AM 30.5192 -81.8628 23° Northeast 154 177 15,500 360 Climbing Jacksonville Center
10:29AM 30.5544 -81.8408 28° Northeast 154 177 15,900 360 Climbing Jacksonville Center
10:30AM 30.5942 -81.8258 18° North 149 171 16,300 300 Climbing Jacksonville Center
10:31AM 30.6336 -81.8086 21° North 149 171 16,600 300 Climbing Jacksonville Center
10:32AM 30.6753 -81.7886 22° Northeast 149 171 16,900 240 Climbing Jacksonville Center
10:33AM 30.7125 -81.7667 27° Northeast 149 171 17,100 60 Climbing Jacksonville Center
10:34AM 30.7542 -81.7444 25° Northeast 155 178 17,100  Level Jacksonville Center
10:35AM 30.7978 -81.7172 28° Northeast 160 184 17,100  Level Jacksonville Center
10:36AM 30.8433 -81.6900 27° Northeast 166 191 17,100  Level Jacksonville Center
10:37AM 30.8869 -81.6653 26° Northeast 171 197 17,100  Level Jacksonville Center
10:38AM 30.9306 -81.6381 28° Northeast 171 197 17,100  Level Jacksonville Center
10:39AM 30.9742 -81.6108 28° Northeast 171 197 17,100  Level Jacksonville Center
10:40AM 31.0178 -81.5883 24° Northeast 171 197 17,100  Level Jacksonville Center
10:41AM 31.0633 -81.5636 25° Northeast 171 197 17,100  Level Jacksonville Center
10:42AM 31.1050 -81.5361 29° Northeast 171 197 17,100  Level Jacksonville Center
10:43AM 31.1486 -81.5139 24° Northeast 171 197 17,100  Level Jacksonville Center
10:44AM 31.1919 -81.4839 31° Northeast 171 197 17,100  Level Jacksonville Center
10:45AM 31.2336 -81.4592 27° Northeast 176 203 17,100  Level Jacksonville Center
10:46AM 31.2792 -81.4342 25° Northeast 176 203 17,100  Level Jacksonville Center
10:47AM 31.3206 -81.4092 27° Northeast 176 203 17,100  Level Jacksonville Center
10:48AM 31.3600 -81.3817 31° Northeast 176 203 17,100  Level Jacksonville Center
10:49AM 31.4078 -81.3542 26° Northeast 176 203 17,100  Level Jacksonville Center
10:50AM 31.4511 -81.3292 26° Northeast 176 203 17,100  Level Jacksonville Center
10:51AM 31.4906 -81.3089 24° Northeast 171 197 17,100  Level Jacksonville Center
10:52AM 31.5403 -81.2836 23° Northeast 171 197 17,100  Level Jacksonville Center
10:53AM 31.5861 -81.2633 21° North 171 197 17,100  Level Jacksonville Center
10:54AM 31.6275 -81.2431 23° Northeast 171 197 17,100  Level Jacksonville Center
10:55AM 31.6794 -81.2178 22° Northeast 171 197 17,100  Level Jacksonville Center
10:56AM 31.7208 -81.1950 25° Northeast 171 197 17,100  Level Jacksonville Center
10:57AM 31.7708 -81.1722 21° North 171 197 17,100  Level Jacksonville Center
10:58AM 31.8206 -81.1492 22° Northeast 171 197 17,100 -60 Level Jacksonville Center
10:59AM 31.8600 -81.1289 24° Northeast 176 203 17,000 -60 Descending Jacksonville Center
11:00AM 31.9117 -81.1058 21° North 170 196 17,000  Level Jacksonville Center
11:01AM 31.9553 -81.0781 28° Northeast 170 196 17,000  Level Jacksonville Center
11:02AM 32.0031 -81.0575 20° North 177 204 17,000  Level Jacksonville Center
11:03AM 32.0506 -81.0369 20° North 177 204 17,000  Level Jacksonville Center
11:04AM 32.0900 -81.0142 26° Northeast 172 198 17,000  Level Jacksonville Center
11:05AM 32.1417 -80.9886 23° Northeast 177 204 17,000  Level Jacksonville Center
11:06AM 32.1894 -80.9681 20° North 172 198 17,000  Level Jacksonville Center
11:07AM 32.2331 -80.9450 24° Northeast 172 198 17,000  Level Jacksonville Center
11:08AM 32.2828 -80.9217 22° Northeast 172 198 17,000  Level Jacksonville Center
11:09AM 32.3261 -80.8986 24° Northeast 177 204 17,000  Level Jacksonville Center
11:10AM 32.3758 -80.8731 23° Northeast 172 198 17,000  Level Jacksonville Center
11:11AM 32.4214 -80.8500 23° Northeast 172 198 17,000  Level Jacksonville Center
11:12AM 32.4692 -80.8267 22° Northeast 172 198 17,000  Level Jacksonville Center
11:13AM 32.5167 -80.8033 22° Northeast 172 198 17,000  Level Jacksonville Center
11:14AM 32.5622 -80.7803 23° Northeast 172 198 17,000  Level Jacksonville Center
11:15AM 32.6078 -80.7569 23° Northeast 172 198 17,000  Level Jacksonville Center
11:16AM 32.6533 -80.7336 23° Northeast 177 204 17,000  Level Jacksonville Center
11:17AM 32.7008 -80.7103 22° Northeast 177 204 17,000  Level Jacksonville Center
11:18AM 32.7464 -80.6869 23° Northeast 177 204 17,000  Level Jacksonville Center
11:19AM 32.7942 -80.6636 22° Northeast 177 204 17,000  Level Jacksonville Center
11:20AM 32.8417 -80.6400 23° Northeast 177 204 17,000  Level Jacksonville Center
11:21AM 32.8892 -80.6142 25° Northeast 177 204 17,000  Level Jacksonville Center
11:22AM 32.9306 -80.5933 23° Northeast 172 198 17,000  Level Jacksonville Center
11:23AM 32.9761 -80.5722 21° North 172 198 17,000  Level Jacksonville Center
11:24AM 33.0236 -80.5489 22° Northeast 172 198 17,000  Level Jacksonville Center
11:25AM 33.0692 -80.5228 26° Northeast 172 198 17,000  Level Jacksonville Center
11:26AM 33.1167 -80.5017 20° North 172 198 17,000  Level Jacksonville Center
11:27AM 33.1642 -80.4758 24° Northeast 172 198 17,000  Level Jacksonville Center
11:28AM 33.2097 -80.4522 23° Northeast 172 198 17,000  Level Jacksonville Center
11:29AM 33.2594 -80.4308 20° North 172 198 17,000  Level Jacksonville Center
11:30AM 33.3069 -80.4047 25° Northeast 172 198 17,000  Level Jacksonville Center
11:31AM 33.3522 -80.3811 24° Northeast 172 198 17,000  Level Jacksonville Center
11:32AM 33.4019 -80.3572 22° Northeast 177 204 17,000  Level Jacksonville Center
11:33AM 33.4494 -80.3311 25° Northeast 177 204 17,000  Level Jacksonville Center
11:34AM 33.4969 -80.3072 23° Northeast 177 204 17,000  Level Jacksonville Center
11:35AM 33.5444 -80.2808 25° Northeast 177 204 17,000  Level Jacksonville Center
11:36AM 33.5919 -80.2569 23° Northeast 177 204 17,000  Level Jacksonville Center
11:37AM 33.6414 -80.2333 22° Northeast 182 209 17,000  Level Jacksonville Center
11:38AM 33.6889 -80.2092 23° Northeast 182 209 17,000  Level Jacksonville Center
11:39AM 33.7364 -80.1828 25° Northeast 182 209 17,000  Level Jacksonville Center
11:40AM 33.7839 -80.1589 23° Northeast 182 209 17,000  Level Jacksonville Center
11:41AM 33.8314 -80.1325 25° Northeast 182 209 17,000  Level Jacksonville Center
11:42AM 33.8786 -80.1083 23° Northeast 182 209 17,000  Level Jacksonville Center
11:43AM 33.9261 -80.0819 25° Northeast 182 209 17,000 -240 Level Jacksonville Center
11:44AM 33.9756 -80.0553 24° Northeast 188 216 16,600 -600 Descending Jacksonville Center
11:45AM 34.0314 -80.0308 20° North 194 223 15,800 -840 Descending Jacksonville Center
11:46AM 34.0872 -80.0042 22° Northeast 199 229 15,000 -900 Descending Jacksonville Center
11:47AM 34.1428 -79.9772 22° Northeast 209 241 14,100 -900 Descending Jacksonville Center
11:48AM 34.2006 -79.9425 26° Northeast 209 241 13,300 -900 Descending Jacksonville Center
11:49AM 34.2561 -79.9131 24° Northeast 209 241 12,300 -1,020 Descending Jacksonville Center
11:50AM 34.3181 -79.8833 22° Northeast 215 247 11,300 -960 Descending Jacksonville Center
11:51AM 34.3778 -79.8511 24° Northeast 220 253 10,400 -960 Descending Jacksonville Center
11:52AM 34.4353 -79.8161 27° Northeast 225 259 9,400 -720 Descending Jacksonville Center
11:53AM 34.4908 -79.7864 24° Northeast 225 259 9,000 -600 Descending Jacksonville Center
11:54AM 34.5464 -79.7592 22° Northeast 225 259 8,200 -840 Descending Jacksonville Center
11:56AM 34.6140 -79.7166 27° Northeast  Level FlightAware Approximate
12:03PM 34.9246 -79.5461 22° Northeast  Level FlightAware Approximate
12:04PM 34.9692 -79.5224 25° Northeast  Level FlightAware Approximate
12:05PM 35.0132 -79.4973 25° Northeast  Level FlightAware Approximate
12:06PM 35.0572 -79.4722 25° Northeast  Level FlightAware Approximate
12:07PM 35.1013 -79.4470 25° Northeast  Level FlightAware Approximate
12:08PM 35.1453 -79.4218 25° Northeast  Level FlightAware Approximate
12:09PM 35.1897 -79.3979 15° North  Level FlightAware Approximate